Time;durP1;ratioP1;P1;durP2;ratioP2;P2;SDS_P1;SDS_P2;PMS_P1;PMS_P2;Temp;Humidity;BMP_temperature;BMP_pressure;BME280_temperature;BME280_humidity;BME280_pressure;Samples;Min_cycle;Max_cycle;Signal;HPM_P1;HPM_P2
2022/12/07 00:00:50;;;;;;;10.75;4.50;;;;;;;;;;1792600;80;21021;-65
2022/12/07 00:03:16;;;;;;;58.30;19.00;;;;;;;;;;1792746;80;22509;-66
2022/12/07 00:05:42;;;;;;;52.90;15.53;;;;;;;;;;1818561;78;21159;-66
2022/12/07 00:08:09;;;;;;;30.45;8.60;;;;;;;;;;1832876;78;21071;-65
2022/12/07 00:10:35;;;;;;;19.00;7.25;;;;;;;;;;1795481;78;21051;-66
2022/12/07 00:13:01;;;;;;;20.08;7.30;;;;;;;;;;1792727;80;21032;-66
2022/12/07 00:15:27;;;;;;;13.95;5.33;;;;;;;;;;1792609;80;21056;-67
2022/12/07 00:17:53;;;;;;;31.73;10.95;;;;;;;;;;1820159;78;21007;-66
2022/12/07 00:20:19;;;;;;;32.73;9.85;;;;;;;;;;1792780;80;21001;-66
2022/12/07 00:22:46;;;;;;;23.67;8.15;;;;;;;;;;1792441;80;21024;-66
2022/12/07 00:25:12;;;;;;;11.35;4.47;;;;;;;;;;1792851;80;20993;-66
2022/12/07 00:27:38;;;;;;;14.05;5.65;;;;;;;;;;1815568;78;21024;-66
2022/12/07 00:30:05;;;;;;;15.78;5.95;;;;;;;;;;1825110;78;21060;-65
2022/12/07 00:32:31;;;;;;;14.47;6.55;;;;;;;;;;1824911;78;21129;-66
2022/12/07 00:34:57;;;;;;;9.90;4.80;;;;;;;;;;1825338;78;21016;-66
2022/12/07 00:37:23;;;;;;;15.00;7.00;;;;;;;;;;1806366;78;20969;-66
2022/12/07 00:39:49;;;;;;;10.38;5.60;;;;;;;;;;1792757;80;21067;-66
2022/12/07 00:42:15;;;;;;;11.85;5.05;;;;;;;;;;1792622;80;21610;-66
2022/12/07 00:44:41;;;;;;;8.98;4.50;;;;;;;;;;1788644;80;20994;-66
2022/12/07 00:47:08;;;;;;;8.10;4.90;;;;;;;;;;1779145;79;21290;-65
2022/12/07 00:49:34;;;;;;;7.05;4.15;;;;;;;;;;1779010;81;21052;-65
2022/12/07 00:52:01;;;;;;;9.85;5.15;;;;;;;;;;1778750;81;21114;-65
2022/12/07 05:38:34;;;;;;;13.98;6.40;;;;;;;;;;1786517;80;28527;-69
2022/12/07 05:41:02;;;;;;;11.90;6.55;;;;;;;;;;1760888;80;21022;-68
2022/12/07 05:43:28;;;;;;;11.75;6.08;;;;;;;;;;1793412;80;21027;-69
2022/12/07 05:45:55;;;;;;;13.05;6.33;;;;;;;;;;1794219;80;21561;-69
2022/12/07 05:48:21;;;;;;;12.10;5.60;;;;;;;;;;1771453;80;22083;-68
2022/12/07 05:50:49;;;;;;;11.68;5.42;;;;;;;;;;1728753;83;21043;-68
2022/12/07 05:53:15;;;;;;;10.98;4.85;;;;;;;;;;1762526;80;21015;-69
2022/12/07 05:55:41;;;;;;;9.83;4.80;;;;;;;;;;1760511;81;21390;-69
2022/12/07 06:00:54;;;;;;;11.70;4.90;;;;;;;;;;1728582;83;21043;-67
2022/12/07 06:03:20;;;;;;;11.85;5.28;;;;;;;;;;1759400;81;21124;-68
2022/12/07 06:05:46;;;;;;;10.03;5.03;;;;;;;;;;1733640;81;20993;-67
2022/12/07 06:08:12;;;;;;;10.30;5.37;;;;;;;;;;1767244;80;20972;-69
2022/12/07 06:10:38;;;;;;;8.45;4.60;;;;;;;;;;1761703;80;21014;-67
2022/12/07 06:13:04;;;;;;;8.50;4.33;;;;;;;;;;1769197;80;22118;-69
2022/12/07 06:15:31;;;;;;;11.73;5.12;;;;;;;;;;1722962;82;21046;-68
2022/12/07 06:17:57;;;;;;;7.65;4.40;;;;;;;;;;1732420;82;21044;-68
2022/12/07 06:20:23;;;;;;;9.10;5.55;;;;;;;;;;1751494;81;21420;-67
2022/12/07 06:22:49;;;;;;;9.63;4.95;;;;;;;;;;1754953;81;21044;-68
2022/12/07 06:25:15;;;;;;;11.38;5.70;;;;;;;;;;1791733;80;21901;-68
2022/12/07 06:27:41;;;;;;;8.03;4.58;;;;;;;;;;1766811;80;21211;-68
2022/12/07 06:30:08;;;;;;;12.03;6.17;;;;;;;;;;1758781;81;21047;-68
2022/12/07 06:32:35;;;;;;;14.93;6.35;;;;;;;;;;1760239;81;21468;-69
2022/12/07 06:35:02;;;;;;;16.67;6.35;;;;;;;;;;1760330;81;21010;-69
2022/12/07 06:37:28;;;;;;;35.13;11.55;;;;;;;;;;1759914;81;21064;-68
2022/12/07 06:55:19;;;;;;;18.60;7.78;;;;;;;;;;1809792;77;22127;-64
2022/12/07 06:57:45;;;;;;;8.05;4.92;;;;;;;;;;1781183;80;21577;-64
2022/12/07 07:00:12;;;;;;;9.98;5.03;;;;;;;;;;1776028;79;21005;-65
2022/12/07 07:02:38;;;;;;;9.25;5.05;;;;;;;;;;1788932;79;20996;-65
2022/12/07 07:05:04;;;;;;;13.78;6.95;;;;;;;;;;1787931;79;20948;-65
2022/12/07 07:07:30;;;;;;;13.38;5.75;;;;;;;;;;1793566;80;21598;-65
2022/12/07 07:09:57;;;;;;;9.78;5.12;;;;;;;;;;1784758;79;21045;-64
2022/12/07 07:12:23;;;;;;;11.97;5.22;;;;;;;;;;1788784;79;20956;-66
2022/12/07 07:14:49;;;;;;;10.65;5.50;;;;;;;;;;1776792;80;21012;-65
2022/12/07 07:17:14;;;;;;;13.20;6.03;;;;;;;;;;1774194;79;21005;-64
2022/12/07 07:19:40;;;;;;;12.88;5.62;;;;;;;;;;1791458;80;20964;-64
2022/12/07 07:22:06;;;;;;;12.35;5.90;;;;;;;;;;1763302;79;21760;-65
2022/12/07 07:24:32;;;;;;;14.50;5.80;;;;;;;;;;1775451;79;21013;-66
2022/12/07 07:26:58;;;;;;;10.38;5.17;;;;;;;;;;1774042;79;21056;-65
2022/12/07 07:29:24;;;;;;;8.98;5.55;;;;;;;;;;1769541;79;20981;-66
2022/12/07 07:31:50;;;;;;;13.20;5.15;;;;;;;;;;1773665;79;21095;-66
2022/12/07 07:34:16;;;;;;;11.50;4.83;;;;;;;;;;1780206;79;21389;-65
2022/12/07 07:36:42;;;;;;;9.43;4.70;;;;;;;;;;1773052;79;21590;-66
2022/12/07 07:39:10;;;;;;;14.30;5.20;;;;;;;;;;1771294;79;21382;-65
2022/12/07 07:41:36;;;;;;;12.93;5.47;;;;;;;;;;1770494;79;21058;-66
2022/12/07 07:44:03;;;;;;;12.53;5.05;;;;;;;;;;1771324;79;21588;-65
2022/12/07 07:46:29;;;;;;;9.43;3.98;;;;;;;;;;1775296;79;21023;-65
2022/12/07 07:48:55;;;;;;;9.83;5.50;;;;;;;;;;1775010;79;21570;-66
2022/12/07 07:51:21;;;;;;;11.05;5.70;;;;;;;;;;1772206;79;21528;-66
2022/12/07 07:53:47;;;;;;;13.72;5.47;;;;;;;;;;1765268;79;21031;-66
2022/12/07 07:56:13;;;;;;;14.58;5.80;;;;;;;;;;1757818;80;21486;-64
2022/12/07 07:58:39;;;;;;;10.18;4.62;;;;;;;;;;1776021;80;21026;-66
2022/12/07 08:01:06;;;;;;;12.70;4.67;;;;;;;;;;1756444;81;20988;-64
2022/12/07 08:03:32;;;;;;;7.95;4.60;;;;;;;;;;1766645;80;21038;-65
2022/12/07 08:05:58;;;;;;;10.90;5.85;;;;;;;;;;1776298;80;21068;-64
2022/12/07 08:08:24;;;;;;;10.90;5.03;;;;;;;;;;1773663;80;21036;-65
2022/12/07 08:10:50;;;;;;;10.50;5.33;;;;;;;;;;1752414;81;22219;-64
2022/12/07 08:13:16;;;;;;;7.10;4.78;;;;;;;;;;1774019;80;22132;-63
2022/12/07 08:15:44;;;;;;;17.15;8.15;;;;;;;;;;1775983;80;21298;-66
2022/12/07 08:18:10;;;;;;;13.62;7.33;;;;;;;;;;1779455;80;21035;-65
2022/12/07 08:20:37;;;;;;;9.68;5.37;;;;;;;;;;1769204;80;21189;-67
2022/12/07 08:23:03;;;;;;;9.28;5.70;;;;;;;;;;1777906;80;20985;-65
2022/12/07 08:25:29;;;;;;;12.10;5.95;;;;;;;;;;1779992;80;20978;-66
2022/12/07 08:27:55;;;;;;;9.90;4.90;;;;;;;;;;1778442;80;22224;-66
2022/12/07 08:30:21;;;;;;;15.23;6.72;;;;;;;;;;1778315;80;20988;-66
2022/12/07 08:32:48;;;;;;;11.75;5.95;;;;;;;;;;1778945;80;21031;-67
2022/12/07 08:35:14;;;;;;;14.38;5.95;;;;;;;;;;1771663;80;21004;-66
2022/12/07 08:37:40;;;;;;;13.50;6.45;;;;;;;;;;1760255;80;20977;-65
2022/12/07 08:40:06;;;;;;;11.00;5.58;;;;;;;;;;1755479;80;21489;-66
2022/12/07 08:42:39;;;;;;;13.88;6.58;;;;;;;;;;1741645;82;21005;-66
2022/12/07 08:45:00;;;;;;;13.78;5.92;;;;;;;;;;1767822;80;21131;-65
2022/12/07 08:47:26;;;;;;;15.98;9.85;;;;;;;;;;1778606;80;21043;-65
2022/12/07 08:49:52;;;;;;;8.65;4.75;;;;;;;;;;1777462;80;21048;-65
2022/12/07 08:52:18;;;;;;;13.48;5.67;;;;;;;;;;1756558;79;20973;-64
2022/12/07 08:54:44;;;;;;;15.28;5.67;;;;;;;;;;1772497;80;21067;-67
2022/12/07 08:57:10;;;;;;;12.82;5.97;;;;;;;;;;1779012;80;20961;-65
2022/12/07 08:59:36;;;;;;;14.47;6.90;;;;;;;;;;1786069;80;20989;-65
2022/12/07 09:02:04;;;;;;;13.85;6.53;;;;;;;;;;1792310;80;21622;-64
2022/12/07 09:04:31;;;;;;;17.60;6.87;;;;;;;;;;1787519;80;21532;-66
2022/12/07 09:06:57;;;;;;;12.73;6.00;;;;;;;;;;1792276;79;21016;-65
2022/12/07 09:09:23;;;;;;;14.03;6.85;;;;;;;;;;1790711;80;21051;-65
2022/12/07 09:11:49;;;;;;;14.30;6.65;;;;;;;;;;1790174;79;20983;-65
2022/12/07 09:14:15;;;;;;;11.93;6.37;;;;;;;;;;1775893;80;20995;-65
2022/12/07 09:16:42;;;;;;;11.10;5.78;;;;;;;;;;1759023;80;21044;-66
2022/12/07 09:19:08;;;;;;;16.77;7.95;;;;;;;;;;1789088;79;21035;-66
2022/12/07 09:21:34;;;;;;;11.88;6.10;;;;;;;;;;1790185;79;20977;-65
2022/12/07 09:24:00;;;;;;;16.00;6.60;;;;;;;;;;1792217;79;21051;-65
2022/12/07 09:26:26;;;;;;;10.35;6.25;;;;;;;;;;1791477;79;21536;-67
2022/12/07 09:28:52;;;;;;;12.30;6.22;;;;;;;;;;1792676;80;20980;-67
2022/12/07 09:31:18;;;;;;;17.12;6.92;;;;;;;;;;1788864;79;21020;-66
2022/12/07 09:33:44;;;;;;;12.70;6.67;;;;;;;;;;1790695;79;21042;-66
2022/12/07 09:36:10;;;;;;;12.07;6.70;;;;;;;;;;1788338;80;21036;-66
2022/12/07 09:38:37;;;;;;;13.95;7.12;;;;;;;;;;1780451;79;21086;-66
2022/12/07 09:41:06;;;;;;;14.87;6.45;;;;;;;;;;1778545;79;21047;-65
2022/12/07 09:43:33;;;;;;;15.13;6.53;;;;;;;;;;1777282;79;21089;-65
2022/12/07 09:45:59;;;;;;;16.77;7.45;;;;;;;;;;1771351;80;21046;-65
2022/12/07 09:48:27;;;;;;;12.93;6.75;;;;;;;;;;1771283;79;21037;-66
2022/12/07 09:50:53;;;;;;;15.50;6.87;;;;;;;;;;1767352;80;21056;-67
2022/12/07 09:53:21;;;;;;;10.30;6.12;;;;;;;;;;1774064;80;21043;-66
2022/12/07 09:55:47;;;;;;;16.60;7.67;;;;;;;;;;1776154;79;21495;-66
2022/12/07 09:58:20;;;;;;;19.80;9.63;;;;;;;;;;1778562;80;20957;-66
2022/12/07 10:00:46;;;;;;;21.23;10.03;;;;;;;;;;1761422;81;21068;-64
2022/12/07 10:03:14;;;;;;;15.10;7.83;;;;;;;;;;1748457;80;20996;-64
2022/12/07 10:05:42;;;;;;;17.48;8.28;;;;;;;;;;1772598;80;21066;-66
2022/12/07 10:08:10;;;;;;;18.25;7.90;;;;;;;;;;1780454;80;20973;-66
2022/12/07 10:10:39;;;;;;;14.50;8.08;;;;;;;;;;1781529;80;21004;-64
2022/12/07 10:13:10;;;;;;;18.17;8.63;;;;;;;;;;1778081;81;21092;-65
2022/12/07 10:15:41;;;;;;;18.87;9.00;;;;;;;;;;1778599;80;21031;-64
2022/12/07 10:18:09;;;;;;;13.50;7.70;;;;;;;;;;1776526;80;21040;-65
2022/12/07 10:20:35;;;;;;;16.85;7.75;;;;;;;;;;1778332;80;21035;-65
2022/12/07 10:23:03;;;;;;;17.02;8.95;;;;;;;;;;1769045;81;20985;-65
2022/12/07 10:25:32;;;;;;;15.48;7.83;;;;;;;;;;1779242;80;21033;-66
2022/12/07 10:28:03;;;;;;;13.55;6.80;;;;;;;;;;1776942;80;21433;-66
2022/12/07 10:30:30;;;;;;;14.05;7.37;;;;;;;;;;1760433;81;21032;-66
2022/12/07 10:32:56;;;;;;;14.18;7.17;;;;;;;;;;1773675;80;20953;-65
2022/12/07 10:35:24;;;;;;;14.35;8.10;;;;;;;;;;1770747;80;21020;-65
2022/12/07 10:50:02;;;;;;;15.50;8.80;;;;;;;;;;1768378;79;28155;-63
2022/12/07 10:52:34;;;;;;;12.70;8.03;;;;;;;;;;1735859;81;21563;-63
2022/12/07 10:55:18;;;;;;;19.67;10.82;;;;;;;;;;1753293;80;21064;-64
2022/12/07 10:57:47;;;;;;;19.25;10.35;;;;;;;;;;1741832;81;21016;-64
2022/12/07 11:00:15;;;;;;;12.65;7.95;;;;;;;;;;1745254;81;21083;-64
2022/12/07 11:02:52;;;;;;;16.62;9.00;;;;;;;;;;1742263;81;21506;-63
2022/12/07 11:05:20;;;;;;;15.32;7.87;;;;;;;;;;1728183;83;21586;-63
2022/12/07 11:07:51;;;;;;;10.72;6.90;;;;;;;;;;1744753;81;21044;-65
2022/12/07 11:10:25;;;;;;;16.52;9.18;;;;;;;;;;1738827;81;21127;-63
2022/12/07 11:13:05;;;;;;;12.18;7.22;;;;;;;;;;1742682;81;21577;-63
2022/12/07 11:15:33;;;;;;;15.88;9.43;;;;;;;;;;1686251;81;21046;-64
2022/12/07 11:18:01;;;;;;;22.62;12.45;;;;;;;;;;1746393;80;21073;-63
2022/12/07 11:20:30;;;;;;;17.50;9.40;;;;;;;;;;1748245;80;21024;-64
2022/12/07 11:22:58;;;;;;;17.57;8.48;;;;;;;;;;1743998;80;21065;-65
2022/12/07 11:25:43;;;;;;;16.07;7.80;;;;;;;;;;1744917;80;21083;-65
2022/12/07 11:28:14;;;;;;;13.95;7.85;;;;;;;;;;1748987;80;21062;-63
2022/12/07 11:30:42;;;;;;;15.65;8.13;;;;;;;;;;1746233;80;21024;-63
2022/12/07 11:33:29;;;;;;;15.63;8.03;;;;;;;;;;1745984;80;21047;-64
2022/12/07 11:35:57;;;;;;;25.08;12.13;;;;;;;;;;1744155;80;21526;-63
2022/12/07 11:38:25;;;;;;;22.95;9.18;;;;;;;;;;1736679;82;21084;-64
2022/12/07 11:40:53;;;;;;;34.03;13.35;;;;;;;;;;1720613;83;21052;-65
2022/12/07 11:43:21;;;;;;;31.57;14.30;;;;;;;;;;1714299;81;21044;-64
2022/12/07 11:45:49;;;;;;;23.57;10.80;;;;;;;;;;1721043;83;21066;-66
2022/12/07 11:48:29;;;;;;;20.45;9.60;;;;;;;;;;1726864;82;21023;-63
2022/12/07 11:50:57;;;;;;;27.10;11.65;;;;;;;;;;1738684;82;21035;-64
2022/12/07 11:53:25;;;;;;;21.37;9.50;;;;;;;;;;1738537;82;21000;-64
2022/12/07 11:55:59;;;;;;;19.73;9.28;;;;;;;;;;1739767;82;21047;-64
2022/12/07 11:58:35;;;;;;;16.45;8.15;;;;;;;;;;1739583;82;21057;-64
2022/12/07 12:01:10;;;;;;;16.42;8.20;;;;;;;;;;1739915;82;21067;-62
2022/12/07 12:03:37;;;;;;;15.85;8.48;;;;;;;;;;1739322;82;21079;-64
2022/12/07 12:06:03;;;;;;;13.65;8.93;;;;;;;;;;1734321;82;21024;-64
2022/12/07 12:08:30;;;;;;;14.25;7.22;;;;;;;;;;1735646;81;21056;-64
2022/12/07 12:11:05;;;;;;;15.75;8.13;;;;;;;;;;1714791;82;21527;-64
2022/12/07 12:13:36;;;;;;;16.73;8.33;;;;;;;;;;1704131;84;21526;-64
2022/12/07 12:16:04;;;;;;;15.28;8.63;;;;;;;;;;1718954;82;21574;-64
2022/12/07 12:18:39;;;;;;;15.23;7.97;;;;;;;;;;1721213;82;21521;-64
2022/12/07 12:21:12;;;;;;;16.40;9.73;;;;;;;;;;1717270;82;21080;-64
2022/12/07 12:23:43;;;;;;;14.75;8.38;;;;;;;;;;1716073;82;22057;-64
2022/12/07 12:26:17;;;;;;;15.18;8.35;;;;;;;;;;1745441;81;21029;-64
2022/12/07 12:28:59;;;;;;;14.75;9.50;;;;;;;;;;1739780;81;21548;-64
2022/12/07 12:31:35;;;;;;;14.05;7.90;;;;;;;;;;1750193;81;21036;-64
2022/12/07 12:34:02;;;;;;;13.65;8.35;;;;;;;;;;1746527;81;21024;-63
2022/12/07 12:36:34;;;;;;;16.27;7.83;;;;;;;;;;1741469;81;21551;-63
2022/12/07 12:39:13;;;;;;;13.38;8.10;;;;;;;;;;1736388;81;21065;-64
2022/12/07 12:44:17;;;;;;;14.45;7.78;;;;;;;;;;1734032;81;21088;-64
2022/12/07 12:46:45;;;;;;;16.02;8.48;;;;;;;;;;1734963;82;21051;-64
2022/12/07 12:49:19;;;;;;;15.38;7.85;;;;;;;;;;1740799;81;21068;-64
2022/12/07 12:51:46;;;;;;;17.27;8.43;;;;;;;;;;1725674;82;21101;-63
2022/12/07 12:54:15;;;;;;;15.68;7.72;;;;;;;;;;1716550;83;21119;-63
2022/12/07 12:56:49;;;;;;;14.87;8.45;;;;;;;;;;1708422;83;21429;-64
2022/12/07 12:59:23;;;;;;;15.18;8.65;;;;;;;;;;1713014;83;21076;-63
2022/12/07 13:01:50;;;;;;;11.97;7.33;;;;;;;;;;1717717;83;21039;-64
2022/12/07 13:04:18;;;;;;;13.38;7.42;;;;;;;;;;1693587;83;21068;-68
2022/12/07 13:06:44;;;;;;;12.50;7.10;;;;;;;;;;1713177;83;21595;-64
2022/12/07 13:09:21;;;;;;;15.10;7.67;;;;;;;;;;1717467;83;21091;-64
2022/12/07 13:11:47;;;;;;;11.28;7.78;;;;;;;;;;1714964;83;21509;-66
2022/12/07 13:14:32;;;;;;;11.28;6.95;;;;;;;;;;1714440;82;21044;-64
2022/12/07 13:16:58;;;;;;;24.47;9.15;;;;;;;;;;1724412;83;21024;-63
2022/12/07 13:19:29;;;;;;;13.50;7.97;;;;;;;;;;1717579;83;21079;-63
2022/12/07 13:21:55;;;;;;;12.63;6.55;;;;;;;;;;1707356;83;21554;-63
2022/12/07 13:24:22;;;;;;;15.32;8.75;;;;;;;;;;1722665;83;21083;-64
2022/12/07 13:26:48;;;;;;;13.80;7.30;;;;;;;;;;1717848;83;21079;-63
2022/12/07 13:29:15;;;;;;;14.15;7.90;;;;;;;;;;1716661;83;21053;-62
2022/12/07 13:31:46;;;;;;;11.88;7.62;;;;;;;;;;1725260;82;21099;-63
2022/12/07 13:34:31;;;;;;;11.35;7.58;;;;;;;;;;1715464;82;21048;-64
2022/12/07 13:36:59;;;;;;;15.45;9.28;;;;;;;;;;1718740;83;21082;-64
2022/12/07 13:39:26;;;;;;;15.85;9.15;;;;;;;;;;1716048;83;21096;-64
2022/12/07 13:41:53;;;;;;;13.43;8.55;;;;;;;;;;1713949;83;21012;-63
2022/12/07 13:44:19;;;;;;;14.50;7.50;;;;;;;;;;1717784;83;20973;-62
2022/12/07 13:47:04;;;;;;;12.68;7.10;;;;;;;;;;1715438;83;22317;-64
2022/12/07 13:49:31;;;;;;;12.93;8.05;;;;;;;;;;1725669;82;21107;-64
2022/12/07 13:52:16;;;;;;;19.77;9.15;;;;;;;;;;1718674;82;21028;-63
2022/12/07 13:54:44;;;;;;;15.08;7.65;;;;;;;;;;1715786;82;21069;-63
2022/12/07 13:57:10;;;;;;;14.43;8.10;;;;;;;;;;1716381;83;21040;-64
2022/12/07 13:59:38;;;;;;;13.55;7.60;;;;;;;;;;1710674;83;21048;-64
2022/12/07 14:02:12;;;;;;;14.43;6.92;;;;;;;;;;1715623;83;21488;-64
2022/12/07 14:04:38;;;;;;;12.30;7.35;;;;;;;;;;1699373;82;21009;-64
2022/12/07 14:07:21;;;;;;;15.23;8.73;;;;;;;;;;1719400;83;21096;-63
2022/12/07 14:10:00;;;;;;;16.07;7.77;;;;;;;;;;1716281;82;20978;-64
2022/12/07 14:12:27;;;;;;;13.22;7.28;;;;;;;;;;1701612;82;21637;-64
2022/12/07 14:27:36;;;;;;;14.98;9.58;;;;;;;;;;1821157;77;22186;-67
2022/12/07 14:30:03;;;;;;;13.55;8.58;;;;;;;;;;1783098;80;21024;-66
2022/12/07 14:32:30;;;;;;;17.67;10.28;;;;;;;;;;1781082;80;20977;-66
2022/12/07 14:35:00;;;;;;;15.55;8.48;;;;;;;;;;1778846;80;21013;-66
2022/12/07 14:37:27;;;;;;;16.82;9.55;;;;;;;;;;1782071;80;21063;-66
2022/12/07 14:39:53;;;;;;;14.07;8.60;;;;;;;;;;1786862;80;20992;-65
2022/12/07 14:42:19;;;;;;;17.82;9.00;;;;;;;;;;1774265;80;20990;-66
2022/12/07 14:44:45;;;;;;;15.13;9.60;;;;;;;;;;1777346;80;20992;-66
2022/12/07 14:47:11;;;;;;;16.32;8.93;;;;;;;;;;1780808;80;20977;-66
2022/12/07 14:49:39;;;;;;;17.20;10.95;;;;;;;;;;1785178;78;21064;-67
2022/12/07 14:52:05;;;;;;;15.32;8.65;;;;;;;;;;1790473;78;21542;-67
2022/12/07 14:54:31;;;;;;;21.15;10.93;;;;;;;;;;1783045;80;21015;-67
2022/12/07 14:56:57;;;;;;;19.23;10.40;;;;;;;;;;1791145;80;21304;-67
2022/12/07 14:59:23;;;;;;;14.03;9.63;;;;;;;;;;1784040;80;21531;-67
2022/12/07 15:01:49;;;;;;;13.70;8.48;;;;;;;;;;1769499;80;21564;-68
2022/12/07 15:04:15;;;;;;;14.20;9.10;;;;;;;;;;1766839;80;20969;-67
2022/12/07 15:06:46;;;;;;;16.37;8.15;;;;;;;;;;1782630;78;21475;-68
2022/12/07 15:09:12;;;;;;;15.90;9.55;;;;;;;;;;1784939;78;21044;-68
2022/12/07 15:11:38;;;;;;;14.20;8.58;;;;;;;;;;1784222;80;21567;-67
2022/12/07 15:14:11;;;;;;;14.33;8.58;;;;;;;;;;1783870;80;21025;-67
2022/12/07 15:16:41;;;;;;;14.13;8.00;;;;;;;;;;1788416;80;21131;-68
2022/12/07 15:19:12;;;;;;;15.58;8.80;;;;;;;;;;1785818;78;21068;-68
2022/12/07 15:21:38;;;;;;;12.58;7.42;;;;;;;;;;1791395;80;21027;-68
2022/12/07 15:24:05;;;;;;;18.92;9.00;;;;;;;;;;1775227;80;21001;-68
2022/12/07 15:26:31;;;;;;;14.03;8.65;;;;;;;;;;1779514;80;20977;-67
2022/12/07 15:28:57;;;;;;;10.88;7.28;;;;;;;;;;1773389;80;20993;-67
2022/12/07 15:31:23;;;;;;;15.88;8.08;;;;;;;;;;1786306;80;20950;-67
2022/12/07 15:33:51;;;;;;;12.20;7.42;;;;;;;;;;1775687;80;21606;-67
2022/12/07 15:36:19;;;;;;;14.85;7.80;;;;;;;;;;1776547;80;21061;-66
2022/12/07 15:38:45;;;;;;;14.28;8.73;;;;;;;;;;1785510;80;21484;-66
2022/12/07 15:41:11;;;;;;;11.05;7.85;;;;;;;;;;1781624;80;20965;-66
2022/12/07 15:46:22;;;;;;;13.40;7.33;;;;;;;;;;1784671;80;21033;-65
2022/12/07 15:48:47;;;;;;;14.68;8.65;;;;;;;;;;1763382;80;20993;-66
2022/12/07 15:51:13;;;;;;;16.37;7.97;;;;;;;;;;1773379;79;21029;-66
2022/12/07 15:53:40;;;;;;;15.88;9.00;;;;;;;;;;1781482;79;21027;-64
2022/12/07 15:56:07;;;;;;;18.40;10.48;;;;;;;;;;1772642;80;20983;-67
2022/12/07 15:58:33;;;;;;;13.43;8.23;;;;;;;;;;1768714;80;20995;-67
2022/12/07 16:00:59;;;;;;;13.58;8.68;;;;;;;;;;1772984;80;21005;-67
2022/12/07 16:03:28;;;;;;;12.98;8.35;;;;;;;;;;1773843;79;21024;-67
2022/12/07 16:05:56;;;;;;;14.53;8.88;;;;;;;;;;1774523;80;21023;-68
2022/12/07 16:08:22;;;;;;;15.88;9.53;;;;;;;;;;1773373;80;21051;-68
2022/12/07 16:10:49;;;;;;;14.38;8.20;;;;;;;;;;1774100;80;21037;-67
2022/12/07 16:13:15;;;;;;;16.15;8.58;;;;;;;;;;1783035;80;21012;-66
2022/12/07 16:15:41;;;;;;;13.65;8.48;;;;;;;;;;1775514;80;21008;-67
2022/12/07 16:18:07;;;;;;;15.60;8.83;;;;;;;;;;1779272;80;21060;-67
2022/12/07 16:20:33;;;;;;;17.98;9.13;;;;;;;;;;1778631;80;20972;-68
2022/12/07 16:23:01;;;;;;;20.40;11.03;;;;;;;;;;1766004;79;21056;-68
2022/12/07 16:25:27;;;;;;;17.80;8.88;;;;;;;;;;1777925;80;21044;-68
2022/12/07 16:27:53;;;;;;;14.43;8.53;;;;;;;;;;1779830;78;20989;-67
2022/12/07 16:30:19;;;;;;;16.20;9.18;;;;;;;;;;1786981;80;21013;-68
2022/12/07 16:32:45;;;;;;;16.42;8.40;;;;;;;;;;1780574;80;21032;-66
2022/12/07 16:35:12;;;;;;;17.12;9.08;;;;;;;;;;1779110;78;21024;-68
2022/12/07 16:37:39;;;;;;;15.35;8.65;;;;;;;;;;1788072;78;21551;-68
2022/12/07 16:40:05;;;;;;;19.12;10.00;;;;;;;;;;1784608;80;20969;-67
2022/12/07 16:42:32;;;;;;;18.12;9.20;;;;;;;;;;1783381;80;21024;-66
2022/12/07 16:44:58;;;;;;;13.65;8.60;;;;;;;;;;1772194;80;21032;-66
2022/12/07 16:47:25;;;;;;;16.60;9.08;;;;;;;;;;1762265;80;21040;-66
2022/12/07 16:49:51;;;;;;;19.60;10.38;;;;;;;;;;1770139;78;21531;-66
2022/12/07 16:52:18;;;;;;;16.62;8.38;;;;;;;;;;1778225;78;21476;-66
2022/12/07 16:54:44;;;;;;;16.52;8.83;;;;;;;;;;1782661;80;20969;-66
2022/12/07 16:57:10;;;;;;;16.93;8.60;;;;;;;;;;1791640;80;21161;-65
2022/12/07 16:59:36;;;;;;;15.13;8.35;;;;;;;;;;1786944;80;21035;-67
2022/12/07 17:02:03;;;;;;;18.77;8.88;;;;;;;;;;1789207;79;21001;-67
2022/12/07 17:04:29;;;;;;;14.85;8.48;;;;;;;;;;1777808;78;20989;-68
2022/12/07 17:06:56;;;;;;;15.38;9.25;;;;;;;;;;1784133;80;21001;-68
2022/12/07 17:09:22;;;;;;;17.92;9.80;;;;;;;;;;1786935;79;21013;-68
2022/12/07 17:11:48;;;;;;;15.32;8.83;;;;;;;;;;1778072;80;21213;-69
2022/12/07 17:16:58;;;;;;;17.30;9.95;;;;;;;;;;1768577;80;21599;-68
2022/12/07 17:19:25;;;;;;;16.00;9.25;;;;;;;;;;1791138;80;21021;-68
2022/12/07 17:21:51;;;;;;;17.02;9.50;;;;;;;;;;1783844;80;20992;-68
2022/12/07 17:24:17;;;;;;;14.00;7.97;;;;;;;;;;1772836;80;20989;-68
2022/12/07 17:26:43;;;;;;;15.98;8.78;;;;;;;;;;1776909;80;21025;-68
2022/12/07 17:29:10;;;;;;;11.95;6.87;;;;;;;;;;1766783;81;21021;-68
2022/12/07 17:31:36;;;;;;;13.30;7.00;;;;;;;;;;1775924;80;21174;-68
2022/12/07 17:34:03;;;;;;;15.35;8.20;;;;;;;;;;1770603;81;21053;-68
2022/12/07 17:36:30;;;;;;;13.65;8.68;;;;;;;;;;1776794;81;21002;-68
2022/12/07 17:38:56;;;;;;;17.35;9.60;;;;;;;;;;1764347;81;22049;-68
2022/12/07 17:44:03;;;;;;;12.40;7.25;;;;;;;;;;1742879;81;21630;-67
2022/12/07 17:46:30;;;;;;;14.70;7.78;;;;;;;;;;1745759;81;21033;-67
2022/12/07 17:48:56;;;;;;;19.52;9.70;;;;;;;;;;1765348;81;21552;-67
2022/12/07 17:54:08;;;;;;;16.17;9.05;;;;;;;;;;1759067;81;21028;-67
2022/12/07 17:56:34;;;;;;;15.58;8.58;;;;;;;;;;1736606;81;20961;-67
2022/12/07 17:59:00;;;;;;;17.07;9.28;;;;;;;;;;1742437;81;21005;-67
2022/12/07 18:01:26;;;;;;;15.78;7.95;;;;;;;;;;1744221;81;21012;-67
2022/12/07 18:03:52;;;;;;;18.48;9.20;;;;;;;;;;1776096;80;21111;-67
2022/12/07 18:06:18;;;;;;;16.45;7.42;;;;;;;;;;1754337;80;21042;-67
2022/12/07 18:08:45;;;;;;;23.05;10.03;;;;;;;;;;1746583;81;21043;-67
2022/12/07 18:11:11;;;;;;;16.85;8.03;;;;;;;;;;1752932;81;21029;-67
2022/12/07 18:13:38;;;;;;;14.05;8.28;;;;;;;;;;1776797;81;21061;-67
2022/12/07 18:16:05;;;;;;;16.37;8.25;;;;;;;;;;1770428;81;21085;-67
2022/12/07 18:18:31;;;;;;;12.78;7.35;;;;;;;;;;1763166;81;21017;-68
2022/12/07 18:20:57;;;;;;;14.75;8.50;;;;;;;;;;1777487;80;21010;-67
2022/12/07 18:23:23;;;;;;;12.30;7.72;;;;;;;;;;1757833;81;22244;-67
2022/12/07 18:25:49;;;;;;;10.88;6.37;;;;;;;;;;1763858;81;21540;-67
2022/12/07 18:28:15;;;;;;;15.18;7.90;;;;;;;;;;1775116;80;21573;-70
2022/12/07 18:30:49;;;;;;;18.50;8.85;;;;;;;;;;1765655;80;22221;-68
2022/12/07 18:47:01;;;;;;;12.75;7.67;;;;;;;;;;1832106;77;28016;-60
2022/12/07 18:49:28;;;;;;;10.65;7.75;;;;;;;;;;1793621;79;21035;-60
2022/12/07 18:51:54;;;;;;;12.05;7.50;;;;;;;;;;1793581;79;21030;-60
2022/12/07 18:54:21;;;;;;;12.50;7.20;;;;;;;;;;1798144;79;21023;-60
2022/12/07 18:56:47;;;;;;;14.10;8.75;;;;;;;;;;1786893;79;21004;-61
2022/12/07 19:01:58;;;;;;;15.53;7.78;;;;;;;;;;1793440;79;21066;-61
2022/12/07 19:04:23;;;;;;;16.57;8.95;;;;;;;;;;1796291;78;21085;-60
2022/12/07 19:06:50;;;;;;;14.18;8.20;;;;;;;;;;1763900;80;21031;-59
2022/12/07 19:09:16;;;;;;;13.43;7.20;;;;;;;;;;1765544;80;21053;-60
2022/12/07 19:11:49;;;;;;;11.75;7.58;;;;;;;;;;1773899;80;21033;-61
2022/12/07 19:14:16;;;;;;;14.25;7.80;;;;;;;;;;1796314;78;21001;-61
2022/12/07 19:16:42;;;;;;;14.55;8.70;;;;;;;;;;1783259;80;21046;-60
2022/12/07 19:19:08;;;;;;;12.30;7.65;;;;;;;;;;1784470;79;21116;-69
2022/12/07 19:21:35;;;;;;;13.10;7.80;;;;;;;;;;1791063;78;21024;-68
2022/12/07 19:24:02;;;;;;;12.58;7.58;;;;;;;;;;1771537;80;21004;-69
2022/12/07 19:26:28;;;;;;;11.78;7.60;;;;;;;;;;1784138;80;21036;-70
2022/12/07 19:28:55;;;;;;;9.98;6.58;;;;;;;;;;1797046;79;21066;-60
2022/12/07 19:31:21;;;;;;;12.93;7.45;;;;;;;;;;1788412;78;21056;-70
2022/12/07 19:33:47;;;;;;;10.35;6.50;;;;;;;;;;1786696;79;20976;-70
2022/12/07 19:36:13;;;;;;;12.18;7.08;;;;;;;;;;1796150;80;21071;-70
2022/12/07 19:38:39;;;;;;;11.22;7.03;;;;;;;;;;1799842;78;21098;-71
2022/12/07 19:41:06;;;;;;;14.53;7.58;;;;;;;;;;1785058;78;21038;-73
2022/12/07 19:43:33;;;;;;;10.32;6.90;;;;;;;;;;1785939;80;21111;-71
2022/12/07 19:46:04;;;;;;;14.50;8.38;;;;;;;;;;1782932;79;20972;-71
2022/12/07 19:48:31;;;;;;;10.72;6.90;;;;;;;;;;1774987;80;21039;-72
2022/12/07 19:51:02;;;;;;;11.85;7.53;;;;;;;;;;1773222;79;21005;-73
2022/12/07 19:53:30;;;;;;;10.35;7.08;;;;;;;;;;1772184;80;21510;-72
2022/12/07 19:55:56;;;;;;;9.58;6.15;;;;;;;;;;1788063;78;21031;-73
2022/12/07 19:58:23;;;;;;;10.45;6.87;;;;;;;;;;1790974;78;20977;-72
2022/12/07 20:00:49;;;;;;;11.93;6.95;;;;;;;;;;1793281;78;22284;-71
2022/12/07 20:03:15;;;;;;;10.65;7.08;;;;;;;;;;1790771;79;21018;-70
2022/12/07 20:05:42;;;;;;;12.98;7.42;;;;;;;;;;1791347;79;21036;-71
2022/12/07 20:08:08;;;;;;;13.75;7.40;;;;;;;;;;1768917;81;21050;-72
2022/12/07 20:10:36;;;;;;;14.15;7.78;;;;;;;;;;1790501;80;21534;-72
2022/12/07 20:15:47;;;;;;;12.03;7.53;;;;;;;;;;1775159;80;21028;-72
2022/12/07 20:18:13;;;;;;;10.15;7.12;;;;;;;;;;1764745;81;21043;-73
2022/12/07 20:20:40;;;;;;;14.80;8.25;;;;;;;;;;1802083;78;21045;-73
2022/12/07 20:23:06;;;;;;;30.72;12.70;;;;;;;;;;1762152;80;21043;-72
2022/12/07 20:25:34;;;;;;;42.50;14.13;;;;;;;;;;1772299;80;21096;-72
2022/12/07 20:28:00;;;;;;;15.65;7.60;;;;;;;;;;1784682;79;21019;-72
2022/12/07 20:30:26;;;;;;;12.37;6.85;;;;;;;;;;1804027;78;21037;-71
2022/12/07 20:32:53;;;;;;;12.18;7.25;;;;;;;;;;1801129;78;20996;-73